Time;durP1;ratioP1;P1;durP2;ratioP2;P2;SDS_P1;SDS_P2;PMS_P1;PMS_P2;Temp;Humidity;BMP_temperature;BMP_pressure;BME280_temperature;BME280_humidity;BME280_pressure;Samples;Min_cycle;Max_cycle;Signal;HPM_P1;HPM_P2
2021/10/10 00:02:24;;;;;;;23.50;13.55;;;6.10;99.90;;;;;;5051057;28;20485;-75
2021/10/10 00:04:50;;;;;;;20.02;12.45;;;6.10;99.90;;;;;;5051510;28;20029;-75
2021/10/10 00:07:16;;;;;;;20.05;12.73;;;6.10;99.90;;;;;;5047026;28;20830;-74
2021/10/10 00:09:41;;;;;;;20.27;12.98;;;6.10;99.90;;;;;;5048947;28;20102;-75
2021/10/10 00:12:08;;;;;;;17.90;12.25;;;6.10;99.90;;;;;;5048587;28;20075;-73
2021/10/10 00:14:34;;;;;;;16.55;11.80;;;6.10;99.90;;;;;;5050300;28;20037;-75
2021/10/10 00:16:59;;;;;;;20.02;12.38;;;6.00;99.90;;;;;;5034347;28;20045;-73
2021/10/10 00:19:25;;;;;;;20.00;12.13;;;6.00;99.90;;;;;;5040081;28;20033;-74
2021/10/10 00:21:51;;;;;;;19.83;12.30;;;6.00;99.90;;;;;;5051593;28;20025;-74
2021/10/10 00:24:16;;;;;;;18.50;12.15;;;6.00;99.90;;;;;;5050901;28;20086;-73
2021/10/10 00:26:42;;;;;;;18.85;11.90;;;6.00;99.90;;;;;;5050752;28;20029;-74
2021/10/10 00:29:08;;;;;;;23.23;12.55;;;6.00;99.90;;;;;;5049367;28;20021;-74
2021/10/10 00:31:33;;;;;;;18.42;11.65;;;6.00;99.90;;;;;;5031470;28;20036;-75
2021/10/10 00:33:59;;;;;;;17.85;11.57;;;6.00;99.90;;;;;;5031400;28;20032;-74
2021/10/10 00:36:24;;;;;;;16.95;11.55;;;5.90;99.90;;;;;;5031552;28;20026;-75
2021/10/10 00:38:50;;;;;;;18.65;11.00;;;5.90;99.90;;;;;;5031675;28;20033;-75
2021/10/10 00:41:16;;;;;;;18.17;11.77;;;5.80;99.90;;;;;;5048773;28;20052;-76
2021/10/10 00:43:41;;;;;;;21.80;11.02;;;5.80;99.90;;;;;;5050777;28;20374;-76
2021/10/10 00:46:07;;;;;;;18.42;11.65;;;5.80;99.90;;;;;;5050623;28;20025;-76
2021/10/10 00:48:33;;;;;;;19.33;11.35;;;5.70;99.90;;;;;;5051457;28;20033;-74
2021/10/10 00:50:58;;;;;;;20.67;12.63;;;5.70;99.90;;;;;;5034869;28;20045;-74
2021/10/10 00:53:25;;;;;;;20.90;12.30;;;5.70;99.90;;;;;;5040253;28;20473;-76
2021/10/10 00:55:54;;;;;;;16.98;10.98;;;5.60;99.90;;;;;;5051085;28;20027;-76
2021/10/10 00:58:24;;;;;;;17.45;11.68;;;5.60;99.90;;;;;;5045730;28;20025;-76
2021/10/10 01:00:55;;;;;;;19.70;11.90;;;5.60;99.90;;;;;;5018660;28;20040;-76
2021/10/10 01:03:22;;;;;;;17.25;11.63;;;5.50;99.90;;;;;;5039643;28;20033;-76
2021/10/10 01:05:48;;;;;;;21.02;12.48;;;5.50;99.90;;;;;;5054848;28;20466;-76
2021/10/10 01:08:16;;;;;;;19.63;13.27;;;5.50;99.90;;;;;;5054410;28;20060;-76
2021/10/10 01:10:44;;;;;;;20.27;11.82;;;5.50;99.90;;;;;;5054053;28;20037;-76
2021/10/10 01:13:12;;;;;;;21.90;12.65;;;5.50;99.90;;;;;;5054296;28;20025;-76
2021/10/10 01:15:38;;;;;;;18.13;12.27;;;5.50;99.90;;;;;;5046262;28;20029;-76
2021/10/10 01:18:03;;;;;;;19.38;11.80;;;5.50;99.90;;;;;;5042029;28;20036;-74
2021/10/10 01:20:43;;;;;;;17.85;11.93;;;5.50;99.90;;;;;;5058462;28;20124;-76
2021/10/10 01:23:09;;;;;;;21.33;11.95;;;5.40;99.90;;;;;;5054143;28;20037;-76
2021/10/10 01:25:35;;;;;;;22.30;12.02;;;;;;;;;;5054392;28;20044;-74
2021/10/10 01:28:01;;;;;;;22.00;11.48;;;;;;;;;;5053925;28;20048;-74
2021/10/10 01:30:27;;;;;;;20.80;11.70;;;;;;;;;;5042894;28;20112;-75
2021/10/10 01:32:54;;;;;;;19.58;11.85;;;;;;;;;;5041134;28;20139;-75
2021/10/10 01:35:21;;;;;;;23.52;13.00;;;;;;;;;;5053738;28;20037;-75
2021/10/10 01:37:47;;;;;;;18.80;11.80;;;;;;;;;;5027909;28;20470;-76
2021/10/10 01:40:13;;;;;;;19.88;12.52;;;;;;;;;;5042645;28;20029;-75
2021/10/10 01:42:39;;;;;;;22.70;14.13;;;;;;;;;;5050357;28;20037;-75
2021/10/10 01:45:13;;;;;;;27.92;13.15;;;;;;;;;;5051527;28;20025;-75
2021/10/10 01:47:39;;;;;;;22.30;13.52;;;;;;;;;;5050548;28;20087;-75
2021/10/10 01:50:05;;;;;;;25.75;14.05;;;;;;;;;;5041154;28;20524;-74
2021/10/10 01:52:31;;;;;;;23.75;13.80;;;;;;;;;;5053950;28;20365;-75
2021/10/10 01:54:57;;;;;;;23.70;13.90;;;;;;;;;;5054010;28;20021;-75
2021/10/10 01:57:23;;;;;;;22.73;13.13;;;;;;;;;;5048103;28;20021;-76
2021/10/10 01:59:49;;;;;;;19.92;13.30;;;;;;;;;;5034256;28;20109;-75
2021/10/10 02:02:15;;;;;;;21.05;13.55;;;;;;;;;;5033678;28;20025;-75
2021/10/10 02:04:41;;;;;;;23.70;13.50;;;;;;;;;;5033626;28;20033;-76
2021/10/10 02:07:07;;;;;;;22.75;14.75;;;;;;;;;;5035139;28;20049;-75
2021/10/10 02:09:33;;;;;;;23.67;14.70;;;;;;;;;;5036217;28;20407;-75
2021/10/10 02:11:59;;;;;;;21.90;14.48;;;;;;;;;;5053881;28;20025;-75
2021/10/10 02:14:25;;;;;;;23.35;13.73;;;;;;;;;;5033940;28;20029;-76
2021/10/10 02:16:51;;;;;;;21.98;13.25;;;;;;;;;;5050873;28;20036;-76
2021/10/10 02:19:17;;;;;;;22.52;14.10;;;;;;;;;;5047841;28;20074;-75
2021/10/10 02:21:43;;;;;;;20.67;13.65;;;;;;;;;;5041760;28;20041;-75
2021/10/10 02:24:09;;;;;;;24.35;14.75;;;;;;;;;;5043442;28;20018;-75
2021/10/10 02:26:37;;;;;;;22.15;13.88;;;;;;;;;;5040737;28;20429;-75
2021/10/10 02:29:03;;;;;;;22.38;15.05;;;;;;;;;;5042170;28;20021;-74
2021/10/10 02:31:29;;;;;;;26.17;14.85;;;;;;;;;;5042403;28;20033;-75
2021/10/10 02:33:55;;;;;;;21.90;13.98;;;;;;;;;;5041795;28;20436;-76
2021/10/10 02:36:21;;;;;;;23.33;14.75;;;;;;;;;;5040900;28;20864;-75
2021/10/10 02:38:47;;;;;;;22.83;14.20;;;;;;;;;;5040708;28;20108;-75
2021/10/10 02:41:13;;;;;;;28.33;15.20;;;;;;;;;;5039739;28;20037;-75
2021/10/10 02:43:39;;;;;;;21.20;14.55;;;;;;;;;;5042703;28;20527;-76
2021/10/10 02:46:05;;;;;;;23.92;15.60;;;;;;;;;;5034780;28;20022;-74
2021/10/10 02:48:31;;;;;;;23.42;14.98;;;;;;;;;;5033307;28;20022;-76
2021/10/10 02:50:57;;;;;;;22.35;14.82;;;;;;;;;;5033416;28;20079;-75
2021/10/10 02:53:23;;;;;;;27.85;15.73;;;;;;;;;;5052190;28;20628;-75
2021/10/10 02:55:49;;;;;;;23.98;15.13;;;;;;;;;;5049626;28;20032;-75
2021/10/10 02:58:15;;;;;;;24.70;14.82;;;;;;;;;;5051934;28;20108;-75
2021/10/10 03:00:41;;;;;;;23.92;15.10;;;;;;;;;;5041675;28;20163;-75
2021/10/10 03:03:07;;;;;;;27.05;17.15;;;;;;;;;;5032186;28;20034;-73
2021/10/10 03:05:33;;;;;;;26.40;16.92;;;;;;;;;;5032982;28;20037;-75
2021/10/10 03:07:59;;;;;;;32.97;17.08;;;;;;;;;;5032856;28;20057;-75
2021/10/10 03:10:25;;;;;;;25.08;16.17;;;;;;;;;;5022701;28;20287;-74
2021/10/10 03:12:51;;;;;;;24.88;16.48;;;;;;;;;;5050647;28;20021;-75
2021/10/10 03:15:17;;;;;;;29.88;17.48;;;;;;;;;;5031665;28;20018;-75
2021/10/10 03:17:43;;;;;;;30.25;17.77;;;;;;;;;;5032613;28;20478;-75
2021/10/10 03:20:09;;;;;;;27.05;17.23;;;;;;;;;;5038099;28;20032;-74
2021/10/10 03:22:35;;;;;;;24.95;16.42;;;;;;;;;;5051901;28;20033;-75
2021/10/10 03:25:01;;;;;;;27.70;17.65;;;;;;;;;;5036581;28;20034;-75
2021/10/10 03:27:27;;;;;;;28.42;17.70;;;;;;;;;;5031504;28;20037;-74
2021/10/10 03:29:54;;;;;;;32.83;17.90;;;;;;;;;;5042922;28;20033;-74
2021/10/10 03:32:20;;;;;;;37.28;20.92;;;;;;;;;;5031604;28;20125;-75
2021/10/10 03:34:46;;;;;;;29.30;18.55;;;;;;;;;;5032351;28;20032;-75
2021/10/10 03:37:12;;;;;;;29.23;17.83;;;;;;;;;;5031696;28;20029;-74
2021/10/10 03:39:38;;;;;;;34.60;19.77;;;;;;;;;;5037337;28;20055;-77
2021/10/10 03:42:04;;;;;;;27.80;17.92;;;;;;;;;;5037270;28;20037;-73
2021/10/10 03:44:30;;;;;;;31.50;17.92;;;;;;;;;;5031610;28;20029;-75
2021/10/10 03:46:56;;;;;;;34.63;18.90;;;;;;;;;;5050830;28;20110;-75
2021/10/10 03:49:22;;;;;;;30.17;19.17;;;;;;;;;;5048558;28;20044;-74
2021/10/10 03:51:48;;;;;;;29.40;18.10;;;;;;;;;;5031929;28;20029;-74
2021/10/10 03:56:40;;;;;;;33.97;19.90;;;;;;;;;;5032132;28;20084;-75
2021/10/10 03:59:06;;;;;;;35.00;20.55;;;;;;;;;;5031093;28;20028;-73
2021/10/10 04:01:33;;;;;;;33.78;20.27;;;;;;;;;;5051306;28;20040;-75
2021/10/10 04:03:59;;;;;;;28.23;18.25;;;;;;;;;;5051198;28;20029;-75
2021/10/10 04:06:25;;;;;;;35.70;21.02;;;;;;;;;;5032904;28;20021;-74
2021/10/10 04:08:51;;;;;;;39.17;21.95;;;;;;;;;;5051919;28;20374;-74
2021/10/10 04:11:17;;;;;;;38.92;22.25;;;;;;;;;;5033050;28;20034;-74
2021/10/10 04:13:43;;;;;;;35.83;20.58;;;;;;;;;;5043153;28;20040;-74
2021/10/10 04:16:09;;;;;;;37.13;23.02;;;;;;;;;;5050698;28;20025;-74
2021/10/10 04:18:36;;;;;;;36.33;21.85;;;;;;;;;;5039550;28;20030;-75
2021/10/10 04:21:04;;;;;;;37.05;21.77;;;;;;;;;;5055449;28;20106;-75
2021/10/10 04:23:30;;;;;;;32.25;20.73;;;;;;;;;;5051022;28;20079;-74
2021/10/10 04:25:56;;;;;;;32.65;18.33;;;;;;;;;;5051344;28;20032;-76
2021/10/10 04:28:22;;;;;;;31.42;20.13;;;;;;;;;;5050539;28;20018;-74
2021/10/10 04:30:48;;;;;;;31.90;19.90;;;;;;;;;;5050885;28;20028;-75
2021/10/10 04:33:14;;;;;;;35.10;20.85;;;;;;;;;;5050632;28;20071;-75
2021/10/10 04:35:40;;;;;;;33.05;19.58;;;;;;;;;;5044464;28;20030;-75
2021/10/10 04:38:06;;;;;;;28.95;18.20;;;;;;;;;;5033067;28;20030;-73
2021/10/10 04:40:32;;;;;;;32.45;19.65;;;;;;;;;;5035415;28;20114;-75
2021/10/10 04:42:58;;;;;;;28.17;18.23;;;;;;;;;;5035759;28;20034;-75
2021/10/10 04:45:24;;;;;;;37.38;20.15;;;;;;;;;;5034707;28;20057;-75
2021/10/10 04:47:50;;;;;;;41.28;22.25;;;;;;;;;;5037151;28;20044;-74
2021/10/10 04:50:16;;;;;;;43.75;22.73;;;;;;;;;;5047506;28;20072;-75
2021/10/10 04:52:42;;;;;;;36.88;19.60;;;;;;;;;;5044394;28;20021;-75
2021/10/10 04:55:08;;;;;;;36.70;20.75;;;;;;;;;;5055068;28;20077;-72
2021/10/10 04:57:34;;;;;;;37.63;21.83;;;;;;;;;;5055153;28;20032;-74
2021/10/10 05:00:00;;;;;;;34.60;21.13;;;;;;;;;;5049205;28;20037;-75
2021/10/10 05:02:26;;;;;;;39.08;21.45;;;;;;;;;;5016517;28;20634;-74
2021/10/10 05:04:52;;;;;;;31.73;20.88;;;;;;;;;;5035264;28;20037;-75
2021/10/10 05:07:18;;;;;;;30.70;19.70;;;3.50;99.90;;;;;;5029325;28;20048;-73
2021/10/10 05:09:44;;;;;;;31.92;19.48;;;3.40;99.90;;;;;;5055420;28;20437;-74
2021/10/10 05:12:10;;;;;;;34.97;20.30;;;3.40;99.90;;;;;;5056030;28;20032;-73
2021/10/10 05:14:35;;;;;;;37.08;22.02;;;3.30;99.90;;;;;;5054584;28;20060;-74
2021/10/10 05:17:01;;;;;;;37.05;22.52;;;3.30;99.90;;;;;;5053517;28;20025;-74
2021/10/10 05:19:27;;;;;;;35.05;22.35;;;3.20;99.90;;;;;;5053312;28;20577;-74
2021/10/10 05:21:52;;;;;;;38.42;23.02;;;3.20;99.90;;;;;;5045543;28;20048;-74
2021/10/10 05:24:19;;;;;;;38.35;22.75;;;3.20;99.90;;;;;;5033734;28;20410;-75
2021/10/10 05:26:45;;;;;;;36.90;22.88;;;3.20;99.90;;;;;;5049555;28;20501;-74
2021/10/10 05:29:10;;;;;;;32.40;20.42;;;3.10;99.90;;;;;;5053990;28;20037;-73
2021/10/10 05:31:36;;;;;;;34.80;21.88;;;3.10;99.90;;;;;;5048115;28;20064;-74
2021/10/10 05:34:02;;;;;;;36.47;22.10;;;3.10;99.90;;;;;;5054948;28;20366;-74
2021/10/10 05:36:27;;;;;;;44.08;23.08;;;3.00;99.90;;;;;;5046635;28;20046;-75
2021/10/10 05:38:53;;;;;;;39.50;24.33;;;3.00;99.90;;;;;;5036456;28;20566;-74
2021/10/10 05:41:19;;;;;;;42.78;24.08;;;3.00;99.90;;;;;;5037364;28;20030;-75
2021/10/10 05:43:45;;;;;;;46.80;25.90;;;3.00;99.90;;;;;;5034133;28;20025;-75
2021/10/10 05:46:10;;;;;;;44.47;23.95;;;3.10;99.90;;;;;;5033771;28;20035;-74
2021/10/10 05:48:36;;;;;;;44.33;25.75;;;3.10;99.90;;;;;;5053385;28;20124;-74
2021/10/10 05:51:01;;;;;;;44.50;23.92;;;3.20;99.90;;;;;;5042713;28;20129;-75
2021/10/10 05:53:27;;;;;;;38.83;23.27;;;3.20;99.90;;;;;;5033481;28;20861;-74
2021/10/10 05:55:58;;;;;;;40.70;22.85;;;3.30;99.90;;;;;;5043335;28;20389;-74
2021/10/10 05:58:26;;;;;;;44.28;25.13;;;3.20;99.90;;;;;;5053212;28;20102;-75
2021/10/10 06:00:53;;;;;;;41.00;23.00;;;3.20;99.90;;;;;;5045219;28;20041;-73
2021/10/10 06:03:18;;;;;;;37.60;22.63;;;3.20;99.90;;;;;;5051583;28;20037;-74
2021/10/10 06:05:44;;;;;;;36.58;21.58;;;3.20;99.90;;;;;;5052876;28;20139;-74
2021/10/10 06:08:10;;;;;;;35.97;21.50;;;3.10;99.90;;;;;;5052992;28;20111;-73
2021/10/10 06:10:37;;;;;;;40.85;24.00;;;3.10;99.90;;;;;;5049508;28;20485;-76
2021/10/10 06:13:03;;;;;;;41.22;23.35;;;3.10;99.90;;;;;;5053837;28;20032;-80
2021/10/10 06:15:29;;;;;;;38.97;22.15;;;3.10;99.90;;;;;;5053647;28;20632;-85
2021/10/10 06:17:54;;;;;;;33.50;22.00;;;3.10;99.90;;;;;;5054221;28;20067;-81
2021/10/10 06:20:20;;;;;;;37.17;22.70;;;3.10;99.90;;;;;;5059015;28;20065;-86
2021/10/10 06:22:46;;;;;;;39.20;22.08;;;3.10;99.90;;;;;;5041033;28;20048;-77
2021/10/10 06:25:11;;;;;;;36.63;23.48;;;3.00;99.90;;;;;;5033121;28;20391;-76
2021/10/10 06:27:37;;;;;;;38.78;23.85;;;3.00;99.90;;;;;;5036281;28;20029;-86
2021/10/10 06:30:03;;;;;;;36.97;22.70;;;3.00;99.90;;;;;;5047531;28;20135;-76
2021/10/10 06:32:29;;;;;;;39.63;23.63;;;3.10;99.90;;;;;;5048191;28;20676;-82
2021/10/10 06:34:55;;;;;;;41.05;24.27;;;3.10;99.90;;;;;;5054027;28;20029;-80
2021/10/10 06:37:21;;;;;;;39.00;22.95;;;3.20;99.90;;;;;;5046306;28;20020;-83
2021/10/10 06:39:46;;;;;;;37.70;22.38;;;3.30;99.90;;;;;;5053575;28;20025;-78
2021/10/10 06:42:12;;;;;;;36.10;22.23;;;3.30;99.90;;;;;;5052674;28;20040;-75
2021/10/10 06:44:37;;;;;;;32.30;20.67;;;3.40;99.90;;;;;;5049891;28;20025;-85
2021/10/10 06:47:04;;;;;;;34.78;21.52;;;3.50;99.90;;;;;;5032870;28;20029;-78
2021/10/10 06:49:29;;;;;;;29.42;19.88;;;3.50;99.90;;;;;;5032708;28;20709;-81
2021/10/10 06:51:55;;;;;;;34.13;21.17;;;3.60;99.90;;;;;;5050304;28;20032;-76
2021/10/10 06:54:21;;;;;;;32.22;20.38;;;3.70;99.90;;;;;;5042113;28;20021;-80
2021/10/10 06:56:46;;;;;;;30.80;21.27;;;3.80;99.90;;;;;;5040833;28;20527;-80
2021/10/10 06:59:12;;;;;;;32.67;20.33;;;3.90;99.90;;;;;;5043004;28;20071;-72
2021/10/10 07:01:39;;;;;;;27.98;19.00;;;4.00;99.90;;;;;;5041841;28;20040;-77
2021/10/10 07:04:04;;;;;;;28.13;18.85;;;4.10;99.90;;;;;;5041045;28;20062;-75
2021/10/10 07:06:30;;;;;;;28.98;19.05;;;4.20;99.90;;;;;;5041299;28;20723;-76
2021/10/10 07:08:56;;;;;;;28.40;19.08;;;4.30;99.90;;;;;;5040974;28;20533;-79
2021/10/10 07:11:22;;;;;;;28.05;18.77;;;4.40;99.90;;;;;;5042538;28;20034;-74
2021/10/10 07:13:48;;;;;;;32.42;19.40;;;4.50;99.90;;;;;;5040632;28;20025;-75
2021/10/10 07:16:14;;;;;;;29.08;17.52;;;4.60;99.90;;;;;;5039556;28;20021;-73
2021/10/10 07:21:29;;;;;;;30.33;18.67;;;4.90;99.90;;;;;;5028265;28;20645;-74
2021/10/10 07:24:51;;;;;;;27.48;18.65;;;5.00;99.90;;;;;;5037609;28;20025;-73
2021/10/10 07:26:40;;;;;;;26.63;17.75;;;5.10;99.90;;;;;;5041078;28;20024;-73
2021/10/10 07:29:06;;;;;;;25.73;17.02;;;5.20;99.90;;;;;;5041548;28;20077;-77
2021/10/10 07:31:32;;;;;;;22.88;16.23;;;5.30;99.90;;;;;;5039035;28;20611;-75
2021/10/10 07:33:58;;;;;;;24.52;16.95;;;5.40;99.90;;;;;;5041213;28;20029;-77
2021/10/10 07:36:23;;;;;;;25.08;15.88;;;5.50;99.90;;;;;;5039956;28;20032;-76
2021/10/10 07:38:49;;;;;;;27.27;17.08;;;5.60;99.90;;;;;;5042088;28;20034;-75
2021/10/10 07:41:15;;;;;;;21.30;14.63;;;5.70;99.90;;;;;;5038813;28;20463;-72
2021/10/10 07:43:42;;;;;;;21.80;14.95;;;5.80;99.90;;;;;;5040444;28;20481;-73
2021/10/10 07:46:23;;;;;;;25.55;15.85;;;5.90;99.90;;;;;;5041431;28;21361;-73
2021/10/10 07:48:49;;;;;;;22.83;15.18;;;6.00;99.90;;;;;;5040993;28;20474;-72
2021/10/10 07:51:16;;;;;;;24.75;15.52;;;6.10;99.90;;;;;;5036626;28;20029;-72
2021/10/10 07:53:42;;;;;;;23.77;15.07;;;6.20;99.90;;;;;;5041381;28;20029;-73
2021/10/10 07:56:07;;;;;;;28.52;16.50;;;6.40;99.90;;;;;;5039286;28;20025;-73
2021/10/10 07:58:33;;;;;;;29.15;16.75;;;6.50;99.90;;;;;;5041139;28;20025;-72
2021/10/10 08:00:59;;;;;;;22.85;15.73;;;6.70;99.90;;;;;;5041504;28;20029;-74
2021/10/10 08:03:25;;;;;;;25.35;15.02;;;6.80;99.90;;;;;;5039974;28;20390;-72
2021/10/10 08:05:50;;;;;;;20.55;13.70;;;7.00;99.90;;;;;;5039123;28;20104;-79
2021/10/10 08:08:16;;;;;;;30.25;14.13;;;7.10;99.90;;;;;;5039969;28;20483;-71
2021/10/10 08:10:42;;;;;;;23.63;15.45;;;7.20;99.90;;;;;;5040011;28;20401;-71
2021/10/10 08:13:08;;;;;;;23.98;15.00;;;7.30;99.90;;;;;;5040430;28;20025;-73
2021/10/10 08:15:34;;;;;;;23.92;15.80;;;7.30;99.90;;;;;;5038230;28;20013;-71
2021/10/10 08:17:59;;;;;;;21.95;15.27;;;7.40;99.90;;;;;;5041859;28;20024;-72
2021/10/10 08:20:25;;;;;;;23.15;15.30;;;7.60;99.90;;;;;;5039917;28;20104;-72
2021/10/10 08:22:51;;;;;;;22.98;14.35;;;7.70;99.90;;;;;;5038363;28;20062;-72
2021/10/10 08:25:17;;;;;;;23.23;14.60;;;7.70;99.90;;;;;;5039124;28;20433;-72
2021/10/10 08:27:44;;;;;;;20.63;14.98;;;7.80;99.90;;;;;;5041974;28;20499;-70
2021/10/10 08:30:13;;;;;;;16.02;12.20;;;8.00;99.90;;;;;;5040379;28;20034;-71
2021/10/10 08:32:39;;;;;;;22.25;14.63;;;8.00;99.90;;;;;;5042058;28;20443;-72
2021/10/10 08:35:06;;;;;;;20.45;13.23;;;8.10;99.90;;;;;;5039043;28;20517;-72
2021/10/10 08:37:32;;;;;;;20.27;14.35;;;8.20;99.90;;;;;;5038039;28;20607;-71
2021/10/10 08:39:58;;;;;;;24.50;15.10;;;8.30;99.90;;;;;;5040667;28;20041;-71
2021/10/10 08:42:45;;;;;;;23.67;13.93;;;8.40;99.90;;;;;;5037752;28;20036;-72
2021/10/10 08:45:18;;;;;;;22.58;14.45;;;8.50;99.90;;;;;;5041220;28;20490;-68
2021/10/10 08:47:45;;;;;;;21.90;14.38;;;8.60;99.90;;;;;;5039567;28;20028;-72
2021/10/10 08:50:21;;;;;;;23.80;13.98;;;8.80;99.90;;;;;;5040728;28;20478;-69
2021/10/10 08:52:52;;;;;;;19.95;14.10;;;8.90;99.90;;;;;;5038925;28;20024;-72
2021/10/10 08:55:18;;;;;;;22.05;14.45;;;8.90;99.90;;;;;;5040914;28;20048;-73
2021/10/10 08:57:44;;;;;;;21.17;14.68;;;9.00;99.90;;;;;;5039677;28;20029;-73
2021/10/10 09:00:17;;;;;;;24.35;15.10;;;9.10;99.90;;;;;;5040615;28;20358;-70
2021/10/10 09:02:46;;;;;;;24.30;14.93;;;9.30;99.90;;;;;;5039133;28;20124;-74
2021/10/10 09:05:13;;;;;;;28.20;15.60;;;9.40;99.90;;;;;;5040512;28;20025;-72
2021/10/10 09:07:38;;;;;;;23.42;14.98;;;9.40;99.90;;;;;;5040547;28;20041;-77
2021/10/10 09:10:20;;;;;;;24.92;14.98;;;9.40;99.90;;;;;;5039191;28;20032;-76
2021/10/10 09:12:47;;;;;;;22.38;14.63;;;9.50;99.90;;;;;;5037613;28;20025;-71
2021/10/10 09:15:16;;;;;;;22.48;13.32;;;9.60;99.90;;;;;;5022856;28;20088;-75
2021/10/10 09:17:55;;;;;;;18.48;13.73;;;9.70;99.90;;;;;;5043525;28;20646;-77
2021/10/10 09:20:33;;;;;;;25.65;15.68;;;9.70;99.90;;;;;;5043149;28;20048;-77
2021/10/10 09:23:00;;;;;;;20.23;13.45;;;9.90;99.90;;;;;;5045610;28;20039;-77
2021/10/10 09:25:25;;;;;;;20.50;14.27;;;9.90;99.90;;;;;;5052940;28;20032;-78
2021/10/10 09:27:51;;;;;;;24.85;15.40;;;10.10;99.90;;;;;;5054874;28;20025;-77
2021/10/10 09:30:20;;;;;;;25.80;15.43;;;10.10;99.90;;;;;;5055066;28;20087;-77
2021/10/10 09:32:46;;;;;;;22.65;14.65;;;10.20;99.90;;;;;;5054547;28;20025;-77
2021/10/10 09:35:30;;;;;;;23.40;14.65;;;10.30;99.90;;;;;;5054219;28;20036;-74
2021/10/10 09:38:22;;;;;;;23.08;15.27;;;10.40;99.90;;;;;;5054399;28;20037;-76
2021/10/10 09:40:59;;;;;;;31.10;16.08;;;10.50;99.90;;;;;;5041511;28;20092;-75
2021/10/10 09:43:25;;;;;;;27.23;15.38;;;10.70;99.90;;;;;;5034542;28;20116;-77
2021/10/10 09:48:28;;;;;;;22.95;14.80;;;11.00;99.90;;;;;;5033754;28;20442;-68
2021/10/10 09:50:53;;;;;;;20.73;14.40;;;11.10;99.90;;;;;;5049819;28;20036;-70
2021/10/10 09:53:29;;;;;;;24.55;14.63;;;11.20;99.90;;;;;;5038733;28;20021;-76
2021/10/10 09:56:03;;;;;;;21.00;13.40;;;11.20;99.90;;;;;;5055480;28;20021;-75
2021/10/10 09:58:39;;;;;;;22.33;14.45;;;11.30;99.90;;;;;;5055058;28;20040;-77
2021/10/10 10:01:24;;;;;;;24.27;14.60;;;11.40;99.90;;;;;;5034540;28;20486;-72
2021/10/10 10:04:08;;;;;;;24.48;14.48;;;11.50;99.90;;;;;;5033880;28;20049;-73
2021/10/10 10:06:38;;;;;;;21.77;13.07;;;11.70;99.60;;;;;;5032777;28;20084;-72
2021/10/10 10:09:10;;;;;;;21.40;12.70;;;11.70;99.20;;;;;;5041441;28;20116;-79
2021/10/10 10:11:41;;;;;;;22.65;14.15;;;11.80;99.90;;;;;;5033403;28;20303;-79
2021/10/10 10:14:08;;;;;;;;;;;11.90;98.70;;;;;;5049318;28;20079;-78
2021/10/10 10:16:41;;;;;;;24.92;14.75;;;12.00;98.30;;;;;;5054553;28;19919;-73
2021/10/10 10:19:14;;;;;;;24.17;14.32;;;12.10;98.20;;;;;;5039680;28;20027;-75
2021/10/10 10:21:41;;;;;;;20.45;13.07;;;12.20;97.60;;;;;;5050034;28;20032;-79
2021/10/10 10:24:10;;;;;;;20.95;12.38;;;12.30;97.80;;;;;;5033328;28;20117;-78
2021/10/10 10:26:36;;;;;;;22.27;14.23;;;12.40;97.60;;;;;;5032845;28;20266;-79
2021/10/10 10:29:05;;;;;;;23.92;13.38;;;12.50;95.90;;;;;;5041096;28;20037;-75
2021/10/10 10:31:32;;;;;;;18.77;12.13;;;12.70;96.00;;;;;;5032815;28;20095;-74
2021/10/10 10:34:20;;;;;;;27.33;13.45;;;12.70;94.80;;;;;;5033283;28;20355;-73
2021/10/10 10:37:18;;;;;;;21.70;12.75;;;12.80;94.80;;;;;;5032243;28;20030;-74
2021/10/10 10:39:47;;;;;;;21.38;12.57;;;12.90;94.10;;;;;;5005809;28;20128;-80
2021/10/10 10:42:34;;;;;;;18.85;11.77;;;13.00;94.00;;;;;;5042147;28;20104;-85
2021/10/10 10:45:00;;;;;;;20.15;12.77;;;13.10;93.50;;;;;;5044930;28;20048;-79
2021/10/10 10:47:39;;;;;;;22.85;11.82;;;13.10;93.10;;;;;;5045081;28;20074;-80
2021/10/10 10:50:13;;;;;;;21.60;12.87;;;13.20;93.20;;;;;;5041928;28;20040;-81
2021/10/10 10:52:42;;;;;;;22.90;13.88;;;13.30;92.80;;;;;;5050171;28;20762;-79
2021/10/10 10:55:44;;;;;;;23.38;12.98;;;13.40;92.20;;;;;;5051150;28;20116;-73
2021/10/10 10:58:10;;;;;;;24.52;13.13;;;13.50;91.00;;;;;;4998603;28;20491;-79
2021/10/10 11:00:37;;;;;;;19.02;12.25;;;13.40;91.30;;;;;;5036323;28;20041;-80
2021/10/10 11:03:21;;;;;;;16.65;12.27;;;13.50;92.10;;;;;;5052978;28;20039;-82
2021/10/10 11:06:16;;;;;;;20.90;12.20;;;13.50;91.40;;;;;;5052619;28;20048;-80
2021/10/10 11:08:43;;;;;;;21.05;12.63;;;13.50;91.10;;;;;;5052109;28;20473;-74
2021/10/10 11:11:13;;;;;;;63.00;38.53;;;13.40;91.30;;;;;;5051087;28;20029;-81
2021/10/10 11:13:40;;;;;;;;;;;13.50;91.60;;;;;;5052361;28;20031;-80
2021/10/10 11:16:20;;;;;;;17.27;11.90;;;13.60;91.60;;;;;;5036996;28;19909;-81
2021/10/10 11:18:46;;;;;;;18.60;12.25;;;13.80;90.80;;;;;;5033997;28;20442;-80
2021/10/10 11:21:13;;;;;;;15.82;11.57;;;14.00;89.00;;;;;;5034041;28;20123;-80
2021/10/10 11:23:40;;;;;;;16.67;11.55;;;13.90;89.10;;;;;;5035294;28;20628;-81
2021/10/10 11:26:08;;;;;;;17.95;12.18;;;14.00;89.60;;;;;;5032274;28;20049;-76
2021/10/10 11:28:37;;;;;;;19.67;12.35;;;14.00;88.30;;;;;;5050160;28;20040;-84
2021/10/10 11:31:41;;;;;;;22.65;11.70;;;14.00;88.70;;;;;;5032688;28;20124;-76
2021/10/10 11:34:08;;;;;;;16.25;11.40;;;14.10;88.30;;;;;;4987308;28;20133;-78
2021/10/10 11:36:40;;;;;;;19.63;11.32;;;14.20;87.60;;;;;;4988763;28;20062;-76
2021/10/10 11:39:08;;;;;;;17.30;11.45;;;14.40;85.90;;;;;;4973660;28;20074;-78
2021/10/10 11:41:57;;;;;;;20.95;11.85;;;14.50;82.90;;;;;;4989848;28;20031;-77
2021/10/10 11:44:25;;;;;;;21.52;12.02;;;14.60;84.90;;;;;;4970301;28;20058;-79
2021/10/10 11:46:52;;;;;;;13.45;10.23;;;14.70;84.00;;;;;;4970678;28;20025;-81
2021/10/10 11:55:00;;;;;;;22.98;11.82;;;15.30;77.90;;;;;;4973210;28;20078;-78
2021/10/10 11:57:28;;;;;;;18.73;11.07;;;15.50;77.70;;;;;;4970193;28;20148;-80
2021/10/10 12:00:06;;;;;;;14.80;11.02;;;15.70;75.30;;;;;;4979773;28;20495;-79
2021/10/10 12:02:37;;;;;;;14.10;9.70;;;15.70;75.80;;;;;;4989440;28;20499;-79
2021/10/10 12:05:22;;;;;;;17.08;10.68;;;15.80;75.60;;;;;;5020448;28;20053;-84
2021/10/10 12:07:51;;;;;;;17.23;10.43;;;16.00;74.60;;;;;;5034069;28;20061;-90
2021/10/10 12:10:20;;;;;;;22.75;10.98;;;16.30;71.10;;;;;;5039609;28;20084;-82
2021/10/10 12:12:46;;;;;;;20.38;11.27;;;16.30;70.60;;;;;;5032031;28;20044;-86
2021/10/10 12:15:16;;;;;;;13.93;10.48;;;16.30;69.30;;;;;;5031745;28;20080;-81
2021/10/10 12:17:49;;;;;;;16.88;9.73;;;16.30;68.60;;;;;;5030883;28;20034;-81
2021/10/10 12:20:18;;;;;;;14.65;9.02;;;16.30;68.90;;;;;;5046745;28;20128;-86
2021/10/10 12:22:48;;;;;;;16.52;9.68;;;16.70;68.30;;;;;;5044458;28;20069;-84
2021/10/10 12:25:40;;;;;;;16.92;9.80;;;16.70;68.60;;;;;;5051695;28;20373;-86
2021/10/10 12:28:10;;;;;;;16.17;9.18;;;16.70;69.00;;;;;;5037854;28;20469;-79
2021/10/10 12:30:54;;;;;;;17.30;9.73;;;17.00;68.20;;;;;;5044337;28;20390;-78
2021/10/10 12:33:19;;;;;;;12.27;8.70;;;17.40;66.80;;;;;;5035967;28;20114;-76
2021/10/10 12:36:04;;;;;;;19.88;10.05;;;17.70;65.70;;;;;;5041024;28;20115;-82
2021/10/10 12:38:40;;;;;;;11.20;8.13;;;17.90;64.00;;;;;;5050783;28;20044;-82
2021/10/10 12:41:21;;;;;;;14.88;8.38;;;18.30;62.80;;;;;;5050872;28;20029;-81
2021/10/10 12:43:48;;;;;;;15.05;8.35;;;18.80;61.50;;;;;;5051201;28;20028;-81
2021/10/10 12:46:14;;;;;;;10.75;7.85;;;19.40;60.20;;;;;;5051367;28;20032;-84
2021/10/10 12:48:40;;;;;;;16.45;7.10;;;;;;;;;;5049560;28;20029;-81
2021/10/10 12:51:15;;;;;;;9.65;7.22;;;20.30;56.20;;;;;;5033901;28;20072;-78
2021/10/10 12:53:40;;;;;;;10.95;7.00;;;20.40;57.00;;;;;;5045360;28;20461;-79
2021/10/10 12:56:28;;;;;;;11.57;7.70;;;20.60;56.30;;;;;;5051189;28;20033;-79
2021/10/10 12:58:55;;;;;;;11.10;7.57;;;20.60;55.00;;;;;;5053161;28;20058;-79
2021/10/10 13:01:26;;;;;;;13.85;8.07;;;20.60;54.90;;;;;;5030613;28;20035;-78
2021/10/10 13:03:52;;;;;;;20.38;7.75;;;20.50;53.20;;;;;;5056427;28;20483;-78
2021/10/10 13:06:19;;;;;;;11.32;7.65;;;20.20;53.60;;;;;;5056072;28;20040;-79
2021/10/10 13:09:09;;;;;;;11.20;7.70;;;20.10;54.00;;;;;;5054082;28;20033;-79
2021/10/10 13:11:35;;;;;;;;;;;19.80;54.00;;;;;;5034431;28;20071;-78
2021/10/10 13:14:01;;;;;;;10.57;7.18;;;19.80;53.40;;;;;;5034760;28;20368;-79
2021/10/10 13:16:27;;;;;;;10.63;7.45;;;19.80;53.10;;;;;;5034320;28;20101;-76
2021/10/10 13:18:52;;;;;;;13.95;7.20;;;20.00;52.50;;;;;;5039192;28;20520;-83
2021/10/10 13:21:18;;;;;;;9.23;6.53;;;19.90;52.90;;;;;;5055258;28;20036;-83
2021/10/10 13:23:44;;;;;;;10.77;6.88;;;20.00;51.10;;;;;;5034670;28;20099;-83